Accueil
METAR-TAF:

METAR-TAF

Aéroports :

Hugoton, Kansas, États-Unis

latitude: 37-09-47N, longitude: 101-22-14W, altitude: 955 m

Observation

Le bulletin a été fait il y a 31 minutes, à 09:55 UTC
Vent 9 kt de ouest
Température -7°C
Humidité 86%
Pression 1026 hPa
Visibilité: 16.1 km
Ciel clair

METAR: KHQG 100955Z AUTO 27009KT 10SM CLR M07/M09 A3030 RMK AO2 T10681095

Heure: 04:26 (10:26 UTC)


TAF: absent

Observations et prévisions météorologiques de plus de 4000 aéroports (messages METAR et TAF).

Les stations disponibles sont représentées par des disques jaunes et rouges sur la carte.

Passer la souris dessus pour voir le nom de la station.

Cliquer dessus pour voir les observations et prévisions météorologiques.

Pour changer de carte: cliquez sur les boutons verts avec une croix noire pour zoomer, sur le bouton vert avec un tiret pour effectuer un zoom arrière, ou sur les flèches vertes pour les cartes adjacentes.


METAR-TAF: